sensor_id;sensor_type;location;lat;lon;timestamp;pressure;altitude;pressure_sealevel;temperature;humidity
7930;BME280;4010;42.698;23.124;2023-05-21T00:00:36;42530.44;;;-140.64;100.00
7930;BME280;4010;42.698;23.124;2023-05-21T00:03:02;40212.13;;;-140.64;100.00
7930;BME280;4010;42.698;23.124;2023-05-21T00:05:29;38924.84;;;-140.64;100.00
7930;BME280;4010;42.698;23.124;2023-05-21T00:07:56;39439.72;;;-140.64;100.00
7930;BME280;4010;42.698;23.124;2023-05-21T00:10:24;38924.84;;;-140.64;100.00
7930;BME280;4010;42.698;23.124;2023-05-21T00:12:51;38667.47;;;-140.64;100.00
7930;BME280;4010;42.698;23.124;2023-05-21T00:15:18;38152.72;;;-140.64;100.00
7930;BME280;4010;42.698;23.124;2023-05-21T00:17:45;36866.25;;;-140.64;100.00
7930;BME280;4010;42.698;23.124;2023-05-21T00:20:12;35837.44;;;-140.64;100.00
7930;BME280;4010;42.698;23.124;2023-05-21T00:22:38;36609.03;;;-140.64;100.00
7930;BME280;4010;42.698;23.124;2023-05-21T00:25:06;37123.50;;;-140.64;100.00
7930;BME280;4010;42.698;23.124;2023-05-21T00:27:35;37380.78;;;-140.64;100.00
7930;BME280;4010;42.698;23.124;2023-05-21T00:30:01;38410.09;;;-140.64;100.00
7930;BME280;4010;42.698;23.124;2023-05-21T00:32:29;38667.47;;;-140.64;100.00
7930;BME280;4010;42.698;23.124;2023-05-21T00:34:55;37895.41;;;-140.64;100.00
7930;BME280;4010;42.698;23.124;2023-05-21T00:37:22;38667.47;;;-140.64;100.00
7930;BME280;4010;42.698;23.124;2023-05-21T00:39:49;40212.13;;;-140.64;100.00
7930;BME280;4010;42.698;23.124;2023-05-21T00:42:15;39439.72;;;-140.64;100.00
7930;BME280;4010;42.698;23.124;2023-05-21T00:44:44;38410.09;;;-140.64;100.00
7930;BME280;4010;42.698;23.124;2023-05-21T00:47:12;37380.78;;;-140.64;100.00
7930;BME280;4010;42.698;23.124;2023-05-21T00:49:39;37123.50;;;-140.64;100.00
7930;BME280;4010;42.698;23.124;2023-05-21T00:52:05;37123.50;;;-140.64;100.00
7930;BME280;4010;42.698;23.124;2023-05-21T00:54:32;36609.03;;;-140.64;100.00
7930;BME280;4010;42.698;23.124;2023-05-21T00:57:00;35837.44;;;-140.64;100.00
7930;BME280;4010;42.698;23.124;2023-05-21T00:59:28;35323.13;;;-140.64;100.00
7930;BME280;4010;42.698;23.124;2023-05-21T01:01:56;34551.84;;;-140.64;100.00
7930;BME280;4010;42.698;23.124;2023-05-21T01:04:28;34037.75;;;-140.64;100.00
7930;BME280;4010;42.698;23.124;2023-05-21T01:06:55;34294.78;;;-140.64;100.00
7930;BME280;4010;42.698;23.124;2023-05-21T01:09:23;35066.00;;;-140.64;100.00
7930;BME280;4010;42.698;23.124;2023-05-21T01:11:50;35066.00;;;-140.64;100.00
7930;BME280;4010;42.698;23.124;2023-05-21T01:14:18;35066.00;;;-140.64;100.00
7930;BME280;4010;42.698;23.124;2023-05-21T01:16:47;33009.78;;;-140.64;100.00
7930;BME280;4010;42.698;23.124;2023-05-21T01:19:17;33780.72;;;-140.64;100.00
7930;BME280;4010;42.698;23.124;2023-05-21T01:21:46;34037.75;;;-140.64;100.00
7930;BME280;4010;42.698;23.124;2023-05-21T01:24:16;34294.78;;;-140.64;100.00
7930;BME280;4010;42.698;23.124;2023-05-21T01:27:00;34808.91;;;-140.64;100.00
7930;BME280;4010;42.698;23.124;2023-05-21T01:29:26;34294.78;;;-140.64;100.00
7930;BME280;4010;42.698;23.124;2023-05-21T01:31:59;35066.00;;;-140.64;100.00
7930;BME280;4010;42.698;23.124;2023-05-21T01:34:33;37123.50;;;-140.64;100.00
7930;BME280;4010;42.698;23.124;2023-05-21T01:37:07;37380.78;;;-140.64;100.00
7930;BME280;4010;42.698;23.124;2023-05-21T01:39:43;36609.03;;;-140.64;100.00
7930;BME280;4010;42.698;23.124;2023-05-21T01:42:12;37638.09;;;-140.64;100.00
7930;BME280;4010;42.698;23.124;2023-05-21T01:44:40;35837.44;;;-140.64;100.00
7930;BME280;4010;42.698;23.124;2023-05-21T01:47:07;36351.81;;;-140.64;100.00
7930;BME280;4010;42.698;23.124;2023-05-21T01:49:35;35580.28;;;-140.64;100.00
7930;BME280;4010;42.698;23.124;2023-05-21T01:52:03;36094.59;;;-140.64;100.00
7930;BME280;4010;42.698;23.124;2023-05-21T01:54:29;36351.81;;;-140.64;100.00
7930;BME280;4010;42.698;23.124;2023-05-21T01:56:57;36609.03;;;-140.64;100.00
7930;BME280;4010;42.698;23.124;2023-05-21T01:59:24;36609.03;;;-140.64;100.00
7930;BME280;4010;42.698;23.124;2023-05-21T02:01:52;36094.59;;;-140.64;100.00
7930;BME280;4010;42.698;23.124;2023-05-21T02:04:18;35580.28;;;-140.64;100.00
7930;BME280;4010;42.698;23.124;2023-05-21T02:06:45;38152.72;;;-140.64;100.00
7930;BME280;4010;42.698;23.124;2023-05-21T02:09:12;40727.16;;;-140.64;100.00
7930;BME280;4010;42.698;23.124;2023-05-21T02:11:38;41242.28;;;-140.64;100.00
7930;BME280;4010;42.698;23.124;2023-05-21T02:14:06;41757.50;;;-140.64;100.00
7930;BME280;4010;42.698;23.124;2023-05-21T02:16:34;39954.63;;;-140.64;100.00
7930;BME280;4010;42.698;23.124;2023-05-21T02:19:02;41499.88;;;-140.64;100.00
7930;BME280;4010;42.698;23.124;2023-05-21T02:21:29;41499.88;;;-140.64;100.00
7930;BME280;4010;42.698;23.124;2023-05-21T02:23:55;41242.28;;;-140.64;100.00
7930;BME280;4010;42.698;23.124;2023-05-21T02:26:22;39954.63;;;-140.64;100.00
7930;BME280;4010;42.698;23.124;2023-05-21T02:28:49;40984.72;;;-140.64;100.00
7930;BME280;4010;42.698;23.124;2023-05-21T02:31:18;39439.72;;;-140.64;100.00
7930;BME280;4010;42.698;23.124;2023-05-21T02:33:45;38924.84;;;-140.64;100.00
7930;BME280;4010;42.698;23.124;2023-05-21T02:36:11;41499.88;;;-140.64;100.00
7930;BME280;4010;42.698;23.124;2023-05-21T02:38:39;44076.88;;;-140.64;100.00
7930;BME280;4010;42.698;23.124;2023-05-21T02:41:08;43303.59;;;-140.64;100.00
7930;BME280;4010;42.698;23.124;2023-05-21T02:43:36;41757.50;;;-140.64;100.00
7930;BME280;4010;42.698;23.124;2023-05-21T02:46:04;39954.63;;;-140.64;100.00
7930;BME280;4010;42.698;23.124;2023-05-21T02:48:32;39697.16;;;-140.64;100.00
7930;BME280;4010;42.698;23.124;2023-05-21T02:50:59;39439.72;;;-140.64;100.00
7930;BME280;4010;42.698;23.124;2023-05-21T02:53:26;37123.50;;;-140.64;100.00
7930;BME280;4010;42.698;23.124;2023-05-21T02:55:53;38152.72;;;-140.64;100.00
7930;BME280;4010;42.698;23.124;2023-05-21T02:58:20;39182.28;;;-140.64;100.00
7930;BME280;4010;42.698;23.124;2023-05-21T03:00:50;38667.47;;;-140.64;100.00
7930;BME280;4010;42.698;23.124;2023-05-21T03:03:16;37638.09;;;-140.64;100.00
7930;BME280;4010;42.698;23.124;2023-05-21T03:05:45;38667.47;;;-140.64;100.00
7930;BME280;4010;42.698;23.124;2023-05-21T03:08:12;39182.28;;;-140.64;100.00
7930;BME280;4010;42.698;23.124;2023-05-21T03:10:39;41242.28;;;-140.64;100.00
7930;BME280;4010;42.698;23.124;2023-05-21T03:13:05;44334.69;;;-140.64;100.00
7930;BME280;4010;42.698;23.124;2023-05-21T03:15:32;44076.88;;;-140.64;100.00
7930;BME280;4010;42.698;23.124;2023-05-21T03:17:59;42272.78;;;-140.64;100.00
7930;BME280;4010;42.698;23.124;2023-05-21T03:20:26;40984.72;;;-140.64;100.00
7930;BME280;4010;42.698;23.124;2023-05-21T03:22:54;39697.16;;;-140.64;100.00
7930;BME280;4010;42.698;23.124;2023-05-21T03:25:21;38410.09;;;-140.64;100.00
7930;BME280;4010;42.698;23.124;2023-05-21T03:27:49;36866.25;;;-140.64;100.00
7930;BME280;4010;42.698;23.124;2023-05-21T03:30:16;34808.91;;;-140.64;100.00
7930;BME280;4010;42.698;23.124;2023-05-21T03:32:43;35323.13;;;-140.64;100.00
7930;BME280;4010;42.698;23.124;2023-05-21T03:35:10;36094.59;;;-140.64;100.00
7930;BME280;4010;42.698;23.124;2023-05-21T03:37:37;35580.28;;;-140.64;100.00
7930;BME280;4010;42.698;23.124;2023-05-21T03:40:06;34551.84;;;-140.64;100.00
7930;BME280;4010;42.698;23.124;2023-05-21T03:42:33;39697.16;;;-140.64;100.00
7930;BME280;4010;42.698;23.124;2023-05-21T03:45:00;36866.25;;;-140.64;100.00
7930;BME280;4010;42.698;23.124;2023-05-21T03:47:26;37123.50;;;-140.64;100.00
7930;BME280;4010;42.698;23.124;2023-05-21T03:49:53;37895.41;;;-140.64;100.00
7930;BME280;4010;42.698;23.124;2023-05-21T03:52:20;37123.50;;;-140.64;100.00
7930;BME280;4010;42.698;23.124;2023-05-21T03:54:46;36351.81;;;-140.64;100.00
7930;BME280;4010;42.698;23.124;2023-05-21T03:57:14;37123.50;;;-140.64;100.00
7930;BME280;4010;42.698;23.124;2023-05-21T03:59:41;34294.78;;;-140.64;100.00
7930;BME280;4010;42.698;23.124;2023-05-21T04:02:07;31725.28;;;-140.64;100.00
7930;BME280;4010;42.698;23.124;2023-05-21T04:04:34;30698.03;;;-140.64;100.00
7930;BME280;4010;42.698;23.124;2023-05-21T04:07:01;29414.41;;;-140.64;100.00
7930;BME280;4010;42.698;23.124;2023-05-21T04:09:28;30954.81;;;-140.64;100.00
7930;BME280;4010;42.698;23.124;2023-05-21T04:11:55;30698.03;;;-140.64;100.00
7930;BME280;4010;42.698;23.124;2023-05-21T04:14:23;28644.47;;;-140.64;100.00
7930;BME280;4010;42.698;23.124;2023-05-21T04:16:50;27105.16;;;-140.64;100.00
7930;BME280;4010;42.698;23.124;2023-05-21T04:19:16;25566.53;;;-140.64;100.00
7930;BME280;4010;42.698;23.124;2023-05-21T04:21:43;25053.81;;;-140.64;100.00
7930;BME280;4010;42.698;23.124;2023-05-21T04:24:10;26335.75;;;-140.64;100.00
7930;BME280;4010;42.698;23.124;2023-05-21T04:26:36;28901.09;;;-140.64;100.00
7930;BME280;4010;42.698;23.124;2023-05-21T04:29:07;39697.16;;;-140.64;100.00
7930;BME280;4010;42.698;23.124;2023-05-21T04:31:35;38667.47;;;-140.64;100.00
7930;BME280;4010;42.698;23.124;2023-05-21T04:34:02;38410.09;;;-140.64;100.00
7930;BME280;4010;42.698;23.124;2023-05-21T04:36:29;37380.78;;;-140.64;100.00
7930;BME280;4010;42.698;23.124;2023-05-21T04:38:56;44076.88;;;-140.64;100.00
7930;BME280;4010;42.698;23.124;2023-05-21T04:41:22;41757.50;;;-140.64;100.00
7930;BME280;4010;42.698;23.124;2023-05-21T04:43:49;39697.16;;;-140.64;100.00
7930;BME280;4010;42.698;23.124;2023-05-21T04:46:19;37380.78;;;-140.64;100.00
7930;BME280;4010;42.698;23.124;2023-05-21T04:48:51;37895.41;;;-140.64;100.00
7930;BME280;4010;42.698;23.124;2023-05-21T04:51:19;39697.16;;;-140.64;100.00
7930;BME280;4010;42.698;23.124;2023-05-21T04:53:46;35323.13;;;-140.64;100.00
7930;BME280;4010;42.698;23.124;2023-05-21T04:56:15;30698.03;;;-140.64;100.00
7930;BME280;4010;42.698;23.124;2023-05-21T04:58:42;38410.09;;;-140.64;100.00
7930;BME280;4010;42.698;23.124;2023-05-21T05:01:09;34551.84;;;-140.64;100.00
7930;BME280;4010;42.698;23.124;2023-05-21T05:03:36;33009.78;;;-140.64;100.00
7930;BME280;4010;42.698;23.124;2023-05-21T05:06:05;62171.19;;;-140.64;100.00
7930;BME280;4010;42.698;23.124;2023-05-21T05:08:32;53111.94;;;-140.64;100.00
7930;BME280;4010;42.698;23.124;2023-05-21T05:10:59;49753.25;;;-140.64;100.00
7930;BME280;4010;42.698;23.124;2023-05-21T05:13:25;66320.59;;;-140.64;100.00
7930;BME280;4010;42.698;23.124;2023-05-21T05:15:52;66061.09;;;-140.64;100.00
7930;BME280;4010;42.698;23.124;2023-05-21T05:18:19;85577.38;;;-140.64;100.00
7930;BME280;4010;42.698;23.124;2023-05-21T05:20:45;111771.75;;;-140.64;100.00
7930;BME280;4010;42.698;23.124;2023-05-21T05:23:14;118349.16;;;-140.64;100.00
7930;BME280;4010;42.698;23.124;2023-05-21T05:25:40;118349.16;;;-140.64;100.00
7930;BME280;4010;42.698;23.124;2023-05-21T05:28:07;118349.16;;;-140.64;100.00
7930;BME280;4010;42.698;23.124;2023-05-21T05:30:34;118349.16;;;-140.64;100.00
7930;BME280;4010;42.698;23.124;2023-05-21T05:33:01;118349.16;;;-140.64;100.00
7930;BME280;4010;42.698;23.124;2023-05-21T05:35:28;118349.16;;;-140.64;100.00
7930;BME280;4010;42.698;23.124;2023-05-21T05:37:54;118349.16;;;-140.64;100.00
7930;BME280;4010;42.698;23.124;2023-05-21T05:40:22;118349.16;;;-140.64;96.95
7930;BME280;4010;42.698;23.124;2023-05-21T05:42:49;118349.16;;;-140.64;85.71
7930;BME280;4010;42.698;23.124;2023-05-21T05:45:17;118349.16;;;-140.64;70.54
7930;BME280;4010;42.698;23.124;2023-05-21T05:47:43;118349.16;;;-140.64;61.30
7930;BME280;4010;42.698;23.124;2023-05-21T05:50:10;118349.16;;;-140.64;60.12
7930;BME280;4010;42.698;23.124;2023-05-21T05:52:37;118349.16;;;-140.64;56.50
7930;BME280;4010;42.698;23.124;2023-05-21T05:55:05;118349.16;;;-140.64;56.14
7930;BME280;4010;42.698;23.124;2023-05-21T05:57:34;118349.16;;;-140.64;53.86
7930;BME280;4010;42.698;23.124;2023-05-21T06:00:01;118349.16;;;-140.64;50.07
7930;BME280;4010;42.698;23.124;2023-05-21T06:02:28;118349.16;;;-140.64;49.38
7930;BME280;4010;42.698;23.124;2023-05-21T06:04:55;118349.16;;;-140.64;49.53
7930;BME280;4010;42.698;23.124;2023-05-21T06:07:22;118349.16;;;-140.64;47.83
7930;BME280;4010;42.698;23.124;2023-05-21T06:09:49;118349.16;;;-140.64;52.73
7930;BME280;4010;42.698;23.124;2023-05-21T06:12:15;118349.16;;;-140.64;49.43
7930;BME280;4010;42.698;23.124;2023-05-21T06:14:43;118349.16;;;-140.64;52.61
7930;BME280;4010;42.698;23.124;2023-05-21T06:17:13;118349.16;;;-140.64;52.78
7930;BME280;4010;42.698;23.124;2023-05-21T06:19:40;118349.16;;;-140.64;54.23
7930;BME280;4010;42.698;23.124;2023-05-21T06:22:07;118349.16;;;-140.64;55.71
7930;BME280;4010;42.698;23.124;2023-05-21T06:24:33;118349.16;;;-140.64;57.56
7930;BME280;4010;42.698;23.124;2023-05-21T06:27:00;118349.16;;;-140.64;55.84
7930;BME280;4010;42.698;23.124;2023-05-21T06:29:28;118349.16;;;-140.64;54.38
7930;BME280;4010;42.698;23.124;2023-05-21T06:31:56;118349.16;;;-140.64;55.41
7930;BME280;4010;42.698;23.124;2023-05-21T06:34:23;118349.16;;;-140.64;63.19
7930;BME280;4010;42.698;23.124;2023-05-21T06:36:49;118349.16;;;-140.64;67.53
7930;BME280;4010;42.698;23.124;2023-05-21T06:39:16;118349.16;;;-140.64;71.59
7930;BME280;4010;42.698;23.124;2023-05-21T06:41:43;118349.16;;;-140.64;71.84
7930;BME280;4010;42.698;23.124;2023-05-21T06:44:09;118349.16;;;-140.64;73.85
7930;BME280;4010;42.698;23.124;2023-05-21T06:46:36;118349.16;;;-140.64;70.38
7930;BME280;4010;42.698;23.124;2023-05-21T06:49:04;118349.16;;;-140.64;75.45
7930;BME280;4010;42.698;23.124;2023-05-21T06:51:31;118349.16;;;-140.64;72.34
7930;BME280;4010;42.698;23.124;2023-05-21T06:53:58;118349.16;;;-140.64;72.03
7930;BME280;4010;42.698;23.124;2023-05-21T06:56:24;118349.16;;;-140.64;70.64
7930;BME280;4010;42.698;23.124;2023-05-21T06:58:51;118349.16;;;-140.64;70.12
7930;BME280;4010;42.698;23.124;2023-05-21T07:01:18;118349.16;;;-140.64;72.96
7930;BME280;4010;42.698;23.124;2023-05-21T07:03:46;118349.16;;;-140.64;70.75
7930;BME280;4010;42.698;23.124;2023-05-21T07:06:14;118349.16;;;-140.64;71.03
7930;BME280;4010;42.698;23.124;2023-05-21T07:08:41;118349.16;;;-140.64;76.42
7930;BME280;4010;42.698;23.124;2023-05-21T07:11:08;118349.16;;;-140.64;77.60
7930;BME280;4010;42.698;23.124;2023-05-21T07:13:35;118349.16;;;-140.64;74.86
7930;BME280;4010;42.698;23.124;2023-05-21T07:16:02;118349.16;;;-140.64;74.89
7930;BME280;4010;42.698;23.124;2023-05-21T07:18:29;118349.16;;;-140.64;71.71
7930;BME280;4010;42.698;23.124;2023-05-21T07:20:56;118349.16;;;-140.64;70.37
7930;BME280;4010;42.698;23.124;2023-05-21T07:23:24;118349.16;;;-140.64;72.83
7930;BME280;4010;42.698;23.124;2023-05-21T07:25:51;118349.16;;;-140.64;74.16
7930;BME280;4010;42.698;23.124;2023-05-21T07:28:18;118349.16;;;-140.64;71.78
7930;BME280;4010;42.698;23.124;2023-05-21T07:30:45;118349.16;;;-140.64;72.71
7930;BME280;4010;42.698;23.124;2023-05-21T07:33:12;118349.16;;;-140.64;72.63
7930;BME280;4010;42.698;23.124;2023-05-21T07:35:39;118349.16;;;-140.64;69.20
7930;BME280;4010;42.698;23.124;2023-05-21T07:38:06;118349.16;;;-140.64;71.85
7930;BME280;4010;42.698;23.124;2023-05-21T07:40:34;118349.16;;;-140.64;67.93
7930;BME280;4010;42.698;23.124;2023-05-21T07:43:00;118349.16;;;-140.64;69.96
7930;BME280;4010;42.698;23.124;2023-05-21T07:45:27;118349.16;;;-140.64;69.86
7930;BME280;4010;42.698;23.124;2023-05-21T07:47:54;118349.16;;;-140.64;67.11
7930;BME280;4010;42.698;23.124;2023-05-21T07:50:20;118349.16;;;-140.64;68.21
7930;BME280;4010;42.698;23.124;2023-05-21T07:52:47;118349.16;;;-140.64;68.11
7930;BME280;4010;42.698;23.124;2023-05-21T07:55:14;118349.16;;;-140.64;65.86
7930;BME280;4010;42.698;23.124;2023-05-21T07:57:42;118349.16;;;-140.64;65.01
7930;BME280;4010;42.698;23.124;2023-05-21T08:00:10;118349.16;;;-140.64;63.17
7930;BME280;4010;42.698;23.124;2023-05-21T08:02:38;118349.16;;;-140.64;62.76
7930;BME280;4010;42.698;23.124;2023-05-21T08:05:05;118349.16;;;-140.64;60.88
7930;BME280;4010;42.698;23.124;2023-05-21T08:07:32;118349.16;;;-140.64;59.66
7930;BME280;4010;42.698;23.124;2023-05-21T08:09:59;118349.16;;;-140.64;63.57
7930;BME280;4010;42.698;23.124;2023-05-21T08:12:25;118349.16;;;-140.64;64.08
7930;BME280;4010;42.698;23.124;2023-05-21T08:14:53;118349.16;;;-140.64;64.65
7930;BME280;4010;42.698;23.124;2023-05-21T08:17:22;118349.16;;;-140.64;64.82
7930;BME280;4010;42.698;23.124;2023-05-21T08:19:49;118349.16;;;-140.64;61.39
7930;BME280;4010;42.698;23.124;2023-05-21T08:22:16;118349.16;;;-140.64;60.98
7930;BME280;4010;42.698;23.124;2023-05-21T08:24:42;118349.16;;;-140.64;59.95
7930;BME280;4010;42.698;23.124;2023-05-21T08:27:09;118349.16;;;-140.64;61.98
7930;BME280;4010;42.698;23.124;2023-05-21T08:29:36;118349.16;;;-140.64;62.60
7930;BME280;4010;42.698;23.124;2023-05-21T08:32:04;118349.16;;;-140.64;62.13
7930;BME280;4010;42.698;23.124;2023-05-21T08:34:31;118349.16;;;-140.64;66.28
7930;BME280;4010;42.698;23.124;2023-05-21T08:37:00;118349.16;;;-140.64;56.49
7930;BME280;4010;42.698;23.124;2023-05-21T08:39:27;118349.16;;;-140.64;57.91
7930;BME280;4010;42.698;23.124;2023-05-21T08:41:57;118349.16;;;-140.64;54.68
7930;BME280;4010;42.698;23.124;2023-05-21T08:44:32;118349.16;;;-140.64;55.03
7930;BME280;4010;42.698;23.124;2023-05-21T08:47:01;118349.16;;;-140.64;51.38
7930;BME280;4010;42.698;23.124;2023-05-21T08:49:32;118349.16;;;-140.64;52.32
7930;BME280;4010;42.698;23.124;2023-05-21T08:52:00;118349.16;;;-140.64;50.42
7930;BME280;4010;42.698;23.124;2023-05-21T08:54:28;118349.16;;;-140.64;49.21
7930;BME280;4010;42.698;23.124;2023-05-21T08:56:55;118349.16;;;-140.64;48.04
7930;BME280;4010;42.698;23.124;2023-05-21T08:59:23;118349.16;;;-140.64;51.03
7930;BME280;4010;42.698;23.124;2023-05-21T09:01:50;118349.16;;;-140.64;48.96
7930;BME280;4010;42.698;23.124;2023-05-21T09:04:18;118349.16;;;-140.64;45.08
7930;BME280;4010;42.698;23.124;2023-05-21T09:06:46;118349.16;;;-140.64;47.84
7930;BME280;4010;42.698;23.124;2023-05-21T09:09:16;118349.16;;;-140.64;47.01
7930;BME280;4010;42.698;23.124;2023-05-21T09:11:47;118349.16;;;-140.64;47.37
7930;BME280;4010;42.698;23.124;2023-05-21T09:14:15;118349.16;;;-140.64;50.84
7930;BME280;4010;42.698;23.124;2023-05-21T09:16:45;118349.16;;;-140.64;49.59
7930;BME280;4010;42.698;23.124;2023-05-21T09:19:13;118349.16;;;-140.64;49.13
7930;BME280;4010;42.698;23.124;2023-05-21T09:21:39;118349.16;;;-140.64;48.31
7930;BME280;4010;42.698;23.124;2023-05-21T09:24:08;118349.16;;;-140.64;49.21
7930;BME280;4010;42.698;23.124;2023-05-21T09:26:35;118349.16;;;-140.64;48.00
7930;BME280;4010;42.698;23.124;2023-05-21T09:29:02;118349.16;;;-140.64;46.03
7930;BME280;4010;42.698;23.124;2023-05-21T09:31:29;118349.16;;;-140.64;48.21
7930;BME280;4010;42.698;23.124;2023-05-21T09:33:57;118349.16;;;-140.64;54.37
7930;BME280;4010;42.698;23.124;2023-05-21T09:36:23;118349.16;;;-140.64;48.11
7930;BME280;4010;42.698;23.124;2023-05-21T09:38:50;118349.16;;;-140.64;51.80
7930;BME280;4010;42.698;23.124;2023-05-21T09:41:19;118349.16;;;-140.64;48.99
7930;BME280;4010;42.698;23.124;2023-05-21T09:43:45;118349.16;;;-140.64;49.60
7930;BME280;4010;42.698;23.124;2023-05-21T09:46:12;118349.16;;;-140.64;54.91
7930;BME280;4010;42.698;23.124;2023-05-21T09:48:40;118349.16;;;-140.64;51.78
7930;BME280;4010;42.698;23.124;2023-05-21T09:51:12;118349.16;;;-140.64;49.04
7930;BME280;4010;42.698;23.124;2023-05-21T09:53:43;118349.16;;;-140.64;48.92
7930;BME280;4010;42.698;23.124;2023-05-21T09:56:09;118349.16;;;-140.64;48.45
7930;BME280;4010;42.698;23.124;2023-05-21T09:58:38;118349.16;;;-140.64;48.14
7930;BME280;4010;42.698;23.124;2023-05-21T10:01:05;118349.16;;;-140.64;48.33
7930;BME280;4010;42.698;23.124;2023-05-21T10:03:33;118349.16;;;-140.64;51.48
7930;BME280;4010;42.698;23.124;2023-05-21T10:06:05;118349.16;;;-140.64;46.23
7930;BME280;4010;42.698;23.124;2023-05-21T10:08:35;118349.16;;;-140.64;47.19
7930;BME280;4010;42.698;23.124;2023-05-21T10:11:04;118349.16;;;-140.64;44.65
7930;BME280;4010;42.698;23.124;2023-05-21T10:13:33;118349.16;;;-140.64;48.67
7930;BME280;4010;42.698;23.124;2023-05-21T10:16:05;118349.16;;;-140.64;44.18
7930;BME280;4010;42.698;23.124;2023-05-21T10:18:32;118349.16;;;-140.64;43.43
7930;BME280;4010;42.698;23.124;2023-05-21T10:21:00;118349.16;;;-140.64;43.79
7930;BME280;4010;42.698;23.124;2023-05-21T10:23:28;118349.16;;;-140.64;47.04
7930;BME280;4010;42.698;23.124;2023-05-21T10:25:56;118349.16;;;-140.64;45.13
7930;BME280;4010;42.698;23.124;2023-05-21T10:28:24;118349.16;;;-140.64;45.82
7930;BME280;4010;42.698;23.124;2023-05-21T10:30:51;118349.16;;;-140.64;44.03
7930;BME280;4010;42.698;23.124;2023-05-21T10:33:22;118349.16;;;-140.64;44.80
7930;BME280;4010;42.698;23.124;2023-05-21T10:35:50;118349.16;;;-140.64;42.58
7930;BME280;4010;42.698;23.124;2023-05-21T10:38:18;118349.16;;;-140.64;39.16
7930;BME280;4010;42.698;23.124;2023-05-21T10:40:46;118349.16;;;-140.64;43.79
7930;BME280;4010;42.698;23.124;2023-05-21T10:46:23;118349.16;;;-140.64;45.78
7930;BME280;4010;42.698;23.124;2023-05-21T10:49:03;118349.16;;;-140.64;42.56
7930;BME280;4010;42.698;23.124;2023-05-21T10:51:47;118349.16;;;-140.64;42.02
7930;BME280;4010;42.698;23.124;2023-05-21T10:54:54;118349.16;;;-140.64;43.43
7930;BME280;4010;42.698;23.124;2023-05-21T10:57:42;118349.16;;;-140.64;41.60
7930;BME280;4010;42.698;23.124;2023-05-21T11:00:14;118349.16;;;-140.64;42.07
7930;BME280;4010;42.698;23.124;2023-05-21T11:02:41;118349.16;;;-140.64;44.37
7930;BME280;4010;42.698;23.124;2023-05-21T11:05:11;118349.16;;;-140.64;43.08
7930;BME280;4010;42.698;23.124;2023-05-21T11:07:58;118349.16;;;-140.64;43.90
7930;BME280;4010;42.698;23.124;2023-05-21T11:10:29;118349.16;;;-140.64;44.62
7930;BME280;4010;42.698;23.124;2023-05-21T11:13:11;118349.16;;;-140.64;45.41
7930;BME280;4010;42.698;23.124;2023-05-21T11:16:03;118349.16;;;-140.64;47.21
7930;BME280;4010;42.698;23.124;2023-05-21T11:18:57;118349.16;;;-140.64;45.23
7930;BME280;4010;42.698;23.124;2023-05-21T11:21:28;118349.16;;;-140.64;46.47
7930;BME280;4010;42.698;23.124;2023-05-21T11:23:58;118349.16;;;-140.64;45.02
7930;BME280;4010;42.698;23.124;2023-05-21T11:26:28;118349.16;;;-140.64;45.00
7930;BME280;4010;42.698;23.124;2023-05-21T11:29:06;118349.16;;;-140.64;46.98
7930;BME280;4010;42.698;23.124;2023-05-21T11:31:33;118349.16;;;-140.64;47.90
7930;BME280;4010;42.698;23.124;2023-05-21T11:34:12;118349.16;;;-140.64;47.82
7930;BME280;4010;42.698;23.124;2023-05-21T11:36:43;118349.16;;;-140.64;49.12
7930;BME280;4010;42.698;23.124;2023-05-21T11:39:10;118349.16;;;-140.64;49.09
7930;BME280;4010;42.698;23.124;2023-05-21T11:41:52;118349.16;;;-140.64;50.98
7930;BME280;4010;42.698;23.124;2023-05-21T11:44:37;118349.16;;;-140.64;51.57
7930;BME280;4010;42.698;23.124;2023-05-21T11:47:04;118349.16;;;-140.64;51.44
7930;BME280;4010;42.698;23.124;2023-05-21T11:49:32;118349.16;;;-140.64;48.54
7930;BME280;4010;42.698;23.124;2023-05-21T11:52:01;118349.16;;;-140.64;48.62
7930;BME280;4010;42.698;23.124;2023-05-21T11:54:28;118349.16;;;-140.64;52.83
7930;BME280;4010;42.698;23.124;2023-05-21T11:56:58;118349.16;;;-140.64;48.32
7930;BME280;4010;42.698;23.124;2023-05-21T11:59:26;118349.16;;;-140.64;51.24
7930;BME280;4010;42.698;23.124;2023-05-21T12:01:53;118349.16;;;-140.64;48.97
7930;BME280;4010;42.698;23.124;2023-05-21T12:04:20;118349.16;;;-140.64;49.44
7930;BME280;4010;42.698;23.124;2023-05-21T12:06:47;118349.16;;;-140.64;51.66
7930;BME280;4010;42.698;23.124;2023-05-21T12:09:16;118349.16;;;-140.64;50.64
7930;BME280;4010;42.698;23.124;2023-05-21T12:11:43;118349.16;;;-140.64;53.15
7930;BME280;4010;42.698;23.124;2023-05-21T12:14:10;118349.16;;;-140.64;54.49
7930;BME280;4010;42.698;23.124;2023-05-21T12:16:37;118349.16;;;-140.64;51.74
7930;BME280;4010;42.698;23.124;2023-05-21T12:19:04;118349.16;;;-140.64;55.99
7930;BME280;4010;42.698;23.124;2023-05-21T12:21:31;118349.16;;;-140.64;55.88
7930;BME280;4010;42.698;23.124;2023-05-21T12:23:58;118349.16;;;-140.64;53.52
7930;BME280;4010;42.698;23.124;2023-05-21T12:26:27;118349.16;;;-140.64;57.21
7930;BME280;4010;42.698;23.124;2023-05-21T12:28:54;118349.16;;;-140.64;61.47
7930;BME280;4010;42.698;23.124;2023-05-21T12:31:22;118349.16;;;-140.64;59.36
7930;BME280;4010;42.698;23.124;2023-05-21T12:33:49;118349.16;;;-140.64;66.07
7930;BME280;4010;42.698;23.124;2023-05-21T12:36:25;118349.16;;;-140.64;61.46
7930;BME280;4010;42.698;23.124;2023-05-21T12:38:52;118349.16;;;-140.64;56.72
7930;BME280;4010;42.698;23.124;2023-05-21T12:41:20;118349.16;;;-140.64;60.10
7930;BME280;4010;42.698;23.124;2023-05-21T12:43:49;118349.16;;;-140.64;60.31
7930;BME280;4010;42.698;23.124;2023-05-21T12:46:16;118349.16;;;-140.64;59.17
7930;BME280;4010;42.698;23.124;2023-05-21T12:48:52;118349.16;;;-140.64;58.48